createdAt,value
2023-05-15T00:00:51.937Z,59.40
2023-05-15T00:03:37.993Z,59.80
2023-05-15T00:06:23.710Z,59.30
2023-05-15T00:09:09.296Z,58.40
2023-05-15T00:11:54.739Z,58.80
2023-05-15T00:14:40.159Z,60.40
2023-05-15T00:17:26.290Z,59.90
2023-05-15T00:20:12.187Z,59.40
2023-05-15T00:22:57.493Z,59.10
2023-05-15T00:25:43.051Z,59.90
2023-05-15T00:28:28.622Z,59.60
2023-05-15T00:31:14.512Z,59.50
2023-05-15T00:34:00.162Z,59.70
2023-05-15T00:36:46.311Z,60.10
2023-05-15T00:39:31.583Z,59.70
2023-05-15T00:42:18.446Z,60.20
2023-05-15T00:45:06.606Z,61.10
2023-05-15T00:47:53.403Z,59.70
2023-05-15T00:50:40.146Z,59.90
2023-05-15T00:53:29.293Z,59.90
2023-05-15T00:56:17.060Z,60.70
2023-05-15T00:59:06.573Z,60.70
2023-05-15T01:01:51.990Z,60.80
2023-05-15T01:04:37.316Z,61.50
2023-05-15T01:07:22.854Z,60.40
2023-05-15T01:10:09.898Z,61.40
2023-05-15T01:12:57.417Z,60.00
2023-05-15T01:15:43.627Z,60.60
2023-05-15T01:18:29.099Z,60.50
2023-05-15T01:21:36.706Z,60.60
2023-05-15T01:25:36.138Z,64.30
2023-05-15T01:28:45.327Z,70.80
2023-05-15T01:31:35.254Z,71.40
2023-05-15T01:34:44.711Z,61.30
2023-05-15T01:37:33.435Z,60.70
2023-05-15T01:40:24.284Z,61.60
2023-05-15T01:43:19.200Z,60.80
2023-05-15T01:46:06.809Z,63.10
2023-05-15T01:48:53.774Z,64.10
2023-05-15T01:51:40.707Z,62.60
2023-05-15T01:54:28.954Z,62.60
2023-05-15T01:57:15.406Z,61.60
2023-05-15T02:00:01.809Z,63.30
2023-05-15T02:02:49.772Z,62.90
2023-05-15T02:05:35.502Z,61.80
2023-05-15T02:08:21.870Z,61.80
2023-05-15T02:11:07.728Z,62.50
2023-05-15T02:13:56.143Z,60.90
2023-05-15T02:16:41.900Z,61.20
2023-05-15T02:19:27.800Z,61.20
2023-05-15T02:22:13.064Z,63.00
2023-05-15T02:24:58.574Z,65.70
2023-05-15T02:27:58.878Z,66.40
2023-05-15T02:30:58.288Z,75.90
2023-05-15T02:34:34.841Z,69.40
2023-05-15T02:37:28.648Z,82.80
2023-05-15T02:40:15.483Z,64.40
2023-05-15T02:43:01.996Z,65.10
2023-05-15T02:45:48.670Z,64.70
2023-05-15T02:48:39.050Z,64.30
2023-05-15T02:51:24.610Z,61.90
2023-05-15T02:54:10.411Z,62.30
2023-05-15T02:56:55.989Z,62.40
2023-05-15T02:59:41.701Z,61.70
2023-05-15T03:02:27.301Z,61.30
2023-05-15T03:05:12.681Z,61.70
2023-05-15T03:07:58.456Z,61.00
2023-05-15T03:10:44.593Z,60.90
2023-05-15T03:13:31.612Z,61.70
2023-05-15T03:16:17.416Z,60.70
2023-05-15T03:19:02.910Z,60.50
2023-05-15T03:21:48.398Z,60.50
2023-05-15T03:24:33.893Z,60.50
2023-05-15T03:27:19.548Z,61.00
2023-05-15T03:30:06.511Z,62.40
2023-05-15T03:32:51.914Z,62.70
2023-05-15T03:35:37.675Z,63.80
2023-05-15T03:38:23.274Z,63.20
2023-05-15T03:41:09.818Z,62.50
2023-05-15T03:43:55.506Z,62.20
2023-05-15T03:46:40.918Z,60.60
2023-05-15T03:49:26.372Z,60.00
2023-05-15T03:52:12.093Z,60.00
2023-05-15T03:54:57.847Z,61.50
2023-05-15T03:57:43.270Z,62.10
2023-05-15T04:00:28.719Z,61.80
2023-05-15T04:03:14.500Z,61.40
2023-05-15T04:06:00.662Z,61.30
2023-05-15T04:08:46.087Z,62.50
2023-05-15T04:11:31.760Z,63.20
2023-05-15T04:14:17.148Z,61.70
2023-05-15T04:17:02.576Z,61.60
2023-05-15T04:19:48.059Z,61.00
2023-05-15T04:22:33.535Z,61.00
2023-05-15T04:25:20.021Z,60.10
2023-05-15T04:28:05.681Z,58.50
2023-05-15T04:30:51.048Z,58.00
2023-05-15T04:33:36.540Z,58.10
2023-05-15T04:36:22.064Z,57.70
2023-05-15T04:39:07.599Z,57.60
2023-05-15T04:41:53.528Z,58.00
2023-05-15T04:44:38.936Z,57.60
2023-05-15T04:47:24.323Z,58.40
2023-05-15T04:50:10.184Z,57.20
2023-05-15T04:52:55.945Z,55.20
2023-05-15T04:55:41.236Z,53.50
2023-05-15T04:58:26.806Z,53.10
2023-05-15T05:01:12.038Z,53.80
2023-05-15T05:03:57.385Z,54.60
2023-05-15T05:06:43.199Z,54.60
2023-05-15T05:09:28.639Z,54.80
2023-05-15T05:12:14.209Z,54.90
2023-05-15T05:14:59.672Z,54.50
2023-05-15T05:17:45.045Z,54.40
2023-05-15T05:20:30.582Z,54.00
2023-05-15T05:23:15.914Z,53.40
2023-05-15T05:26:01.829Z,53.00
2023-05-15T05:28:48.932Z,52.50
2023-05-15T05:31:34.519Z,52.50
2023-05-15T05:34:20.534Z,52.40
2023-05-15T05:37:05.875Z,52.20
2023-05-15T05:39:51.366Z,52.20
2023-05-15T05:42:37.260Z,52.40
2023-05-15T05:45:24.454Z,52.60
2023-05-15T05:48:10.312Z,52.40
2023-05-15T05:50:55.791Z,52.40
2023-05-15T05:53:41.318Z,52.10
2023-05-15T05:56:27.139Z,52.00
2023-05-15T05:59:22.046Z,52.10
2023-05-15T06:02:08.660Z,51.90
2023-05-15T06:04:54.105Z,51.80
2023-05-15T06:07:39.420Z,51.60
2023-05-15T06:10:25.286Z,51.50
2023-05-15T06:13:10.772Z,51.40
2023-05-15T06:15:57.501Z,51.10
2023-05-15T06:18:43.261Z,50.90
2023-05-15T06:21:28.701Z,50.50
2023-05-15T06:24:14.784Z,50.20
2023-05-15T06:27:00.501Z,49.60
2023-05-15T06:29:46.009Z,49.70
2023-05-15T06:32:32.508Z,49.60
2023-05-15T06:35:20.202Z,49.70
2023-05-15T06:38:05.609Z,49.40
2023-05-15T06:40:51.035Z,49.10
2023-05-15T06:43:39.561Z,48.80
2023-05-15T06:46:25.579Z,48.50
2023-05-15T06:49:11.438Z,48.60
2023-05-15T06:51:57.463Z,48.60
2023-05-15T06:54:43.148Z,48.70
2023-05-15T06:57:28.570Z,48.40
2023-05-15T07:00:15.233Z,48.60
2023-05-15T07:03:00.448Z,48.50
2023-05-15T07:05:46.053Z,47.90
2023-05-15T07:08:31.475Z,48.40
2023-05-15T07:11:16.822Z,48.20
2023-05-15T07:14:02.439Z,48.20
2023-05-15T07:16:47.772Z,48.60
2023-05-15T07:19:34.349Z,48.60
2023-05-15T07:22:20.258Z,48.10
2023-05-15T07:25:06.692Z,47.90
2023-05-15T07:27:53.005Z,47.80
2023-05-15T07:30:38.518Z,48.00
2023-05-15T07:33:24.057Z,48.00
2023-05-15T07:36:09.848Z,47.80
2023-05-15T07:38:55.597Z,47.60
2023-05-15T07:41:41.218Z,47.70
2023-05-15T07:44:26.731Z,47.50
2023-05-15T07:47:12.168Z,47.20
2023-05-15T07:49:57.905Z,47.10
2023-05-15T07:52:43.464Z,46.70
2023-05-15T07:55:29.096Z,47.10
2023-05-15T07:58:14.737Z,47.20
2023-05-15T08:01:00.337Z,47.40
2023-05-15T08:03:46.025Z,47.20
2023-05-15T08:06:31.787Z,47.40
2023-05-15T08:09:17.370Z,47.60
2023-05-15T08:12:16.997Z,47.80
2023-05-15T08:15:02.982Z,45.70
2023-05-15T08:17:48.803Z,47.00
2023-05-15T08:20:34.633Z,47.20
2023-05-15T08:23:20.438Z,46.80
2023-05-15T08:26:05.924Z,47.00
2023-05-15T08:28:51.682Z,46.80
2023-05-15T08:31:37.387Z,46.90
2023-05-15T08:34:22.560Z,46.90
2023-05-15T08:37:08.035Z,46.50
2023-05-15T08:39:53.462Z,46.20
2023-05-15T08:42:54.898Z,46.60
2023-05-15T08:45:41.173Z,45.60
2023-05-15T08:48:29.985Z,46.90
2023-05-15T08:51:16.236Z,47.10
2023-05-15T08:54:02.173Z,46.70
2023-05-15T08:56:48.260Z,46.40
2023-05-15T08:59:33.774Z,46.50
2023-05-15T09:02:20.714Z,46.50
2023-05-15T09:05:08.360Z,46.70
2023-05-15T09:07:55.169Z,47.00
2023-05-15T09:10:41.044Z,46.70
2023-05-15T09:13:26.545Z,46.40
2023-05-15T09:16:12.039Z,46.50
2023-05-15T09:19:00.427Z,46.60
2023-05-15T09:21:46.340Z,46.70
2023-05-15T09:24:31.889Z,46.60
2023-05-15T09:27:17.300Z,47.10
2023-05-15T09:30:09.906Z,47.10
2023-05-15T09:33:01.160Z,46.10
2023-05-15T09:35:46.737Z,47.10
2023-05-15T09:38:42.199Z,47.00
2023-05-15T09:41:28.615Z,46.80
2023-05-15T09:44:26.508Z,47.10
2023-05-15T09:47:15.910Z,45.30
2023-05-15T09:50:02.007Z,47.60
2023-05-15T09:52:47.433Z,47.20
2023-05-15T09:55:35.082Z,47.30
2023-05-15T09:58:20.946Z,47.30
2023-05-15T10:01:11.041Z,47.50
2023-05-15T10:04:01.406Z,47.30
2023-05-15T10:06:48.870Z,32.90
2023-05-15T10:09:34.510Z,47.10
2023-05-15T10:12:19.959Z,47.50
2023-05-15T10:15:06.724Z,47.10
2023-05-15T10:17:53.443Z,47.50
2023-05-15T10:20:39.465Z,47.60
2023-05-15T10:23:26.243Z,47.60
2023-05-15T10:26:36.865Z,46.90
2023-05-15T10:29:23.579Z,45.80
2023-05-15T10:32:09.201Z,46.90
2023-05-15T10:34:56.223Z,46.60
2023-05-15T10:37:42.211Z,46.20
2023-05-15T10:40:29.428Z,45.10
2023-05-15T10:43:15.244Z,45.30
2023-05-15T10:46:01.315Z,46.60
2023-05-15T10:48:46.724Z,47.60
2023-05-15T10:51:33.560Z,47.60
2023-05-15T10:54:19.724Z,48.20
2023-05-15T10:57:05.513Z,49.50
2023-05-15T10:59:51.050Z,50.80
2023-05-15T11:02:39.309Z,52.10
2023-05-15T11:05:26.346Z,50.70
2023-05-15T11:08:17.654Z,51.00
2023-05-15T11:11:03.386Z,48.50
2023-05-15T11:14:07.242Z,52.50
2023-05-15T11:16:55.897Z,39.50
2023-05-15T11:20:02.069Z,52.50
2023-05-15T11:22:58.494Z,28.90
2023-05-15T11:25:53.591Z,35.10
2023-05-15T11:28:43.271Z,53.10
2023-05-15T11:31:32.164Z,52.20
2023-05-15T11:34:35.696Z,52.00
2023-05-15T11:37:24.382Z,40.00
2023-05-15T11:40:26.991Z,52.60
2023-05-15T11:43:25.788Z,51.70
2023-05-15T11:46:12.602Z,42.50
2023-05-15T11:49:00.060Z,55.20
2023-05-15T11:51:48.522Z,56.00
2023-05-15T11:54:34.188Z,55.50
2023-05-15T11:57:20.567Z,54.80
2023-05-15T12:00:07.221Z,55.40
2023-05-15T12:02:54.152Z,56.70
2023-05-15T12:05:50.254Z,55.60
2023-05-15T12:08:44.003Z,53.80
2023-05-15T12:11:29.480Z,51.00
2023-05-15T12:14:14.830Z,49.40
2023-05-15T12:17:01.567Z,47.80
2023-05-15T12:19:48.298Z,46.20
2023-05-15T12:22:40.371Z,46.60
2023-05-15T12:25:26.086Z,34.90
2023-05-15T12:28:12.802Z,46.90
2023-05-15T12:30:58.822Z,47.10
2023-05-15T12:33:45.265Z,47.00
2023-05-15T12:36:30.865Z,48.10
2023-05-15T12:39:16.374Z,49.00
2023-05-15T12:42:01.796Z,49.50
2023-05-15T12:44:51.974Z,49.50
2023-05-15T12:47:39.223Z,49.70
2023-05-15T12:50:26.278Z,51.70
2023-05-15T12:53:15.137Z,50.10
2023-05-15T12:56:01.335Z,49.20
2023-05-15T12:58:48.145Z,48.30
2023-05-15T13:01:33.836Z,48.30
2023-05-15T13:04:19.728Z,47.40
2023-05-15T13:07:05.791Z,48.60
2023-05-15T13:10:08.100Z,49.00
2023-05-15T13:12:56.556Z,29.50
2023-05-15T13:15:45.487Z,47.80
2023-05-15T13:18:31.257Z,50.00
2023-05-15T13:21:18.241Z,50.10
2023-05-15T13:24:04.714Z,51.50
2023-05-15T13:26:50.540Z,51.80
2023-05-15T13:29:36.705Z,53.40
2023-05-15T13:32:22.872Z,55.60
2023-05-15T13:35:09.574Z,54.60
2023-05-15T13:37:54.983Z,54.20
2023-05-15T13:40:40.369Z,54.90
2023-05-15T13:43:26.735Z,55.90
2023-05-15T13:46:12.665Z,55.90
2023-05-15T13:48:57.967Z,54.60
2023-05-15T13:51:43.442Z,53.60
2023-05-15T13:54:28.866Z,54.00
2023-05-15T13:57:14.394Z,53.20
2023-05-15T13:59:59.755Z,53.00
2023-05-15T14:02:45.476Z,52.70
2023-05-15T14:05:31.127Z,52.10
2023-05-15T14:08:16.678Z,51.40
2023-05-15T14:11:02.452Z,51.10
2023-05-15T14:13:48.486Z,50.80
2023-05-15T14:16:34.111Z,50.60
2023-05-15T14:19:19.881Z,50.70
2023-05-15T14:22:05.895Z,49.70
2023-05-15T14:24:53.016Z,49.50
2023-05-15T14:27:38.554Z,48.60
2023-05-15T14:30:24.805Z,48.60
2023-05-15T14:33:10.645Z,48.40
2023-05-15T14:35:56.153Z,48.30
2023-05-15T14:38:42.083Z,48.20
2023-05-15T14:41:28.610Z,48.10
2023-05-15T14:44:14.535Z,47.90
2023-05-15T14:47:12.387Z,47.70
2023-05-15T14:49:57.924Z,47.00
2023-05-15T14:52:43.292Z,47.70
2023-05-15T14:55:28.856Z,47.40
2023-05-15T14:58:14.428Z,47.50
2023-05-15T15:00:59.928Z,47.40
2023-05-15T15:03:45.542Z,47.30
2023-05-15T15:06:31.300Z,47.30
2023-05-15T15:09:18.302Z,47.00
2023-05-15T15:12:06.308Z,46.90
2023-05-15T15:14:52.032Z,47.10
2023-05-15T15:17:37.521Z,47.60
2023-05-15T15:20:28.413Z,46.90
2023-05-15T15:23:14.041Z,47.10
2023-05-15T15:25:59.888Z,46.80
2023-05-15T15:28:45.265Z,46.90
2023-05-15T15:31:31.492Z,46.90
2023-05-15T15:34:17.270Z,46.70
2023-05-15T15:37:05.688Z,46.40
2023-05-15T15:39:51.181Z,46.10
2023-05-15T15:42:38.482Z,46.20
2023-05-15T15:45:24.159Z,46.10
2023-05-15T15:48:09.782Z,46.40
2023-05-15T15:50:55.274Z,46.60
2023-05-15T15:53:40.605Z,46.30
2023-05-15T15:56:25.790Z,46.50
2023-05-15T15:59:11.246Z,46.30
2023-05-15T16:01:57.510Z,46.40
2023-05-15T16:04:43.281Z,46.40
2023-05-15T16:07:28.640Z,46.40
2023-05-15T16:10:14.212Z,46.40
2023-05-15T16:12:59.918Z,46.60
2023-05-15T16:15:45.512Z,46.50
2023-05-15T16:18:30.998Z,46.30
2023-05-15T16:21:16.578Z,46.20
2023-05-15T16:24:02.812Z,46.40
2023-05-15T16:26:48.140Z,46.30
2023-05-15T16:29:33.560Z,46.30
2023-05-15T16:32:19.451Z,47.20
2023-05-15T16:35:05.674Z,46.60
2023-05-15T16:37:51.534Z,46.90
2023-05-15T16:40:36.863Z,47.10
2023-05-15T16:43:22.433Z,47.20
2023-05-15T16:46:08.204Z,47.20
2023-05-15T16:48:53.822Z,47.20
2023-05-15T16:51:39.313Z,47.20
2023-05-15T16:54:24.814Z,47.10
2023-05-15T16:57:10.157Z,47.20
2023-05-15T16:59:56.147Z,47.20
2023-05-15T17:02:44.158Z,47.20
2023-05-15T17:05:30.095Z,47.20
2023-05-15T17:08:15.682Z,47.40
2023-05-15T17:11:01.135Z,47.40
2023-05-15T17:13:46.792Z,47.40
2023-05-15T17:16:32.179Z,47.50
2023-05-15T17:19:17.892Z,47.50
2023-05-15T17:22:04.080Z,47.50
2023-05-15T17:24:52.100Z,47.40
2023-05-15T17:27:38.311Z,47.30
2023-05-15T17:30:24.229Z,47.40
2023-05-15T17:33:10.161Z,47.40
2023-05-15T17:35:56.156Z,47.40
2023-05-15T17:38:41.736Z,47.60
2023-05-15T17:41:27.175Z,47.40
2023-05-15T17:44:13.056Z,47.40
2023-05-15T17:46:59.104Z,47.40
2023-05-15T17:49:44.818Z,47.40
2023-05-15T17:52:30.289Z,47.30
2023-05-15T17:55:15.810Z,47.50
2023-05-15T17:58:01.172Z,47.50
2023-05-15T18:00:46.786Z,47.40
2023-05-15T18:03:32.447Z,47.40
2023-05-15T18:06:18.375Z,47.50
2023-05-15T18:09:03.755Z,47.60
2023-05-15T18:11:49.356Z,47.50
2023-05-15T18:14:34.645Z,47.60
2023-05-15T18:17:20.192Z,47.60
2023-05-15T18:20:06.905Z,47.60
2023-05-15T18:22:52.634Z,47.60
2023-05-15T18:25:38.251Z,47.60
2023-05-15T18:28:23.622Z,47.60
2023-05-15T18:31:09.186Z,47.70
2023-05-15T18:33:55.174Z,47.80
2023-05-15T18:36:40.713Z,47.80
2023-05-15T18:39:26.300Z,47.80
2023-05-15T18:42:11.613Z,47.80
2023-05-15T18:44:56.956Z,47.90
2023-05-15T18:47:42.681Z,47.80
2023-05-15T18:50:27.927Z,47.90
2023-05-15T18:53:13.547Z,48.00
2023-05-15T18:55:58.996Z,48.00
2023-05-15T18:58:44.444Z,47.80
2023-05-15T19:01:30.229Z,47.90
2023-05-15T19:04:15.993Z,48.00
2023-05-15T19:07:01.542Z,47.80
2023-05-15T19:09:46.897Z,48.00
2023-05-15T19:12:32.562Z,48.00
2023-05-15T19:15:18.147Z,47.80
2023-05-15T19:18:03.491Z,47.80
2023-05-15T19:20:49.207Z,48.00
2023-05-15T19:23:37.994Z,48.00
2023-05-15T19:26:23.970Z,47.80
2023-05-15T19:29:09.569Z,47.80
2023-05-15T19:31:55.206Z,47.80
2023-05-15T19:34:41.006Z,47.80
2023-05-15T19:37:26.504Z,47.90
2023-05-15T19:40:12.703Z,47.80
2023-05-15T19:42:58.416Z,47.90
2023-05-15T19:45:44.136Z,47.80
2023-05-15T19:48:29.713Z,47.70
2023-05-15T19:51:15.115Z,47.70
2023-05-15T19:54:00.647Z,47.70
2023-05-15T19:56:46.081Z,47.70
2023-05-15T19:59:31.447Z,47.90
2023-05-15T20:02:16.946Z,48.00
2023-05-15T20:05:02.503Z,47.80
2023-05-15T20:07:48.130Z,47.70
2023-05-15T20:10:33.535Z,47.90
2023-05-15T20:13:19.210Z,47.90
2023-05-15T20:16:05.300Z,48.00
2023-05-15T20:18:50.825Z,47.90
2023-05-15T20:21:37.489Z,47.80
2023-05-15T20:24:23.090Z,47.90
2023-05-15T20:27:08.648Z,48.00
2023-05-15T20:29:54.213Z,47.80
2023-05-15T20:32:39.831Z,47.90
2023-05-15T20:35:25.949Z,47.80
2023-05-15T20:38:12.140Z,47.60
2023-05-15T20:40:57.682Z,47.50
2023-05-15T20:43:43.148Z,47.50
2023-05-15T20:46:30.140Z,47.60
2023-05-15T20:49:16.068Z,47.50
2023-05-15T20:52:01.471Z,47.60
2023-05-15T20:54:46.999Z,47.50
2023-05-15T20:57:32.240Z,47.60
2023-05-15T21:00:18.629Z,47.70
2023-05-15T21:03:04.144Z,47.70
2023-05-15T21:05:49.894Z,47.80
2023-05-15T21:08:35.482Z,47.90
2023-05-15T21:11:20.995Z,48.40
2023-05-15T21:14:06.590Z,47.70
2023-05-15T21:16:52.387Z,47.80
2023-05-15T21:19:37.710Z,48.00
2023-05-15T21:22:23.224Z,47.80
2023-05-15T21:25:09.679Z,47.80
2023-05-15T21:27:55.065Z,47.70
2023-05-15T21:30:40.516Z,47.70
2023-05-15T21:33:26.092Z,48.00
2023-05-15T21:36:12.140Z,47.70
2023-05-15T21:38:57.545Z,47.80
2023-05-15T21:41:43.092Z,47.70
2023-05-15T21:44:28.347Z,47.80
2023-05-15T21:47:13.919Z,48.10
2023-05-15T21:49:59.389Z,48.10
2023-05-15T21:52:44.807Z,48.00
2023-05-15T21:55:30.366Z,48.20
2023-05-15T21:58:15.756Z,48.20
2023-05-15T22:01:01.257Z,48.20
2023-05-15T22:03:46.835Z,48.30
2023-05-15T22:06:32.604Z,48.30
2023-05-15T22:09:17.826Z,48.20
2023-05-15T22:12:05.645Z,48.30
2023-05-15T22:17:43.201Z,48.40
2023-05-15T22:20:28.544Z,48.40
2023-05-15T22:23:14.661Z,48.40
2023-05-15T22:26:00.002Z,48.50
2023-05-15T22:28:47.777Z,48.40
2023-05-15T22:31:33.355Z,48.40
2023-05-15T22:34:18.905Z,48.70
2023-05-15T22:37:05.046Z,48.70
2023-05-15T22:39:50.992Z,48.90
2023-05-15T22:42:36.403Z,48.90
2023-05-15T22:45:21.756Z,48.90
2023-05-15T22:48:07.353Z,48.80
2023-05-15T22:50:52.698Z,48.90
2023-05-15T22:53:38.380Z,48.80
2023-05-15T22:56:23.933Z,48.90
2023-05-15T22:59:09.357Z,48.70
2023-05-15T23:01:54.963Z,48.70
2023-05-15T23:04:40.362Z,48.80
2023-05-15T23:07:25.983Z,49.00
2023-05-15T23:10:11.536Z,49.10
2023-05-15T23:12:56.940Z,49.10
2023-05-15T23:15:42.663Z,49.30
2023-05-15T23:18:28.073Z,49.40
2023-05-15T23:21:13.722Z,49.10
2023-05-15T23:23:59.164Z,48.90
2023-05-15T23:26:44.705Z,48.90
2023-05-15T23:29:30.573Z,49.50
2023-05-15T23:32:15.968Z,48.90
2023-05-15T23:35:01.375Z,48.80
2023-05-15T23:37:46.777Z,49.10
2023-05-15T23:40:32.190Z,49.00
2023-05-15T23:43:17.664Z,49.10
2023-05-15T23:46:03.310Z,49.00
2023-05-15T23:48:48.939Z,48.90
2023-05-15T23:51:34.406Z,49.10
2023-05-15T23:54:19.816Z,49.10
2023-05-15T23:57:05.884Z,49.20
2023-05-15T23:59:51.687Z,49.30
